sensor_id;sensor_type;location;lat;lon;timestamp;temperature;humidity
12977;DHT22;6553;48.412;9.514;2023-08-06T00:00:21;21.20;76.60
12977;DHT22;6553;48.412;9.514;2023-08-06T00:02:48;21.20;76.60
12977;DHT22;6553;48.412;9.514;2023-08-06T00:05:15;21.20;76.60
12977;DHT22;6553;48.412;9.514;2023-08-06T00:07:44;21.20;76.60
12977;DHT22;6553;48.412;9.514;2023-08-06T00:10:10;21.20;76.60
12977;DHT22;6553;48.412;9.514;2023-08-06T00:12:36;21.20;76.60
12977;DHT22;6553;48.412;9.514;2023-08-06T00:15:02;21.20;76.60
12977;DHT22;6553;48.412;9.514;2023-08-06T00:17:28;21.20;76.60
12977;DHT22;6553;48.412;9.514;2023-08-06T00:19:54;21.20;76.70
12977;DHT22;6553;48.412;9.514;2023-08-06T00:22:20;21.20;76.70
12977;DHT22;6553;48.412;9.514;2023-08-06T00:24:45;21.20;76.70
12977;DHT22;6553;48.412;9.514;2023-08-06T00:27:11;21.20;76.70
12977;DHT22;6553;48.412;9.514;2023-08-06T00:29:37;21.10;76.60
12977;DHT22;6553;48.412;9.514;2023-08-06T00:32:03;21.20;76.60
12977;DHT22;6553;48.412;9.514;2023-08-06T00:34:29;21.10;76.60
12977;DHT22;6553;48.412;9.514;2023-08-06T00:36:54;21.20;76.60
12977;DHT22;6553;48.412;9.514;2023-08-06T00:39:20;21.20;76.60
12977;DHT22;6553;48.412;9.514;2023-08-06T00:41:46;21.20;76.60
12977;DHT22;6553;48.412;9.514;2023-08-06T00:44:11;21.10;76.50
12977;DHT22;6553;48.412;9.514;2023-08-06T00:46:39;21.10;76.50
12977;DHT22;6553;48.412;9.514;2023-08-06T00:49:05;21.10;76.50
12977;DHT22;6553;48.412;9.514;2023-08-06T00:51:31;21.10;76.50
12977;DHT22;6553;48.412;9.514;2023-08-06T00:53:58;21.10;76.50
12977;DHT22;6553;48.412;9.514;2023-08-06T00:56:24;21.10;76.50
12977;DHT22;6553;48.412;9.514;2023-08-06T00:58:51;21.10;76.50
12977;DHT22;6553;48.412;9.514;2023-08-06T01:01:17;21.10;76.50
12977;DHT22;6553;48.412;9.514;2023-08-06T01:03:43;21.10;76.40
12977;DHT22;6553;48.412;9.514;2023-08-06T01:06:09;21.10;76.40
12977;DHT22;6553;48.412;9.514;2023-08-06T01:08:48;21.10;76.40
12977;DHT22;6553;48.412;9.514;2023-08-06T01:11:31;21.10;76.40
12977;DHT22;6553;48.412;9.514;2023-08-06T01:14:18;21.10;76.50
12977;DHT22;6553;48.412;9.514;2023-08-06T01:16:58;21.10;76.40
12977;DHT22;6553;48.412;9.514;2023-08-06T01:19:24;21.10;76.50
12977;DHT22;6553;48.412;9.514;2023-08-06T01:21:50;21.10;76.40
12977;DHT22;6553;48.412;9.514;2023-08-06T01:24:16;21.10;76.40
12977;DHT22;6553;48.412;9.514;2023-08-06T01:26:48;21.10;76.30
12977;DHT22;6553;48.412;9.514;2023-08-06T01:29:30;21.10;76.30
12977;DHT22;6553;48.412;9.514;2023-08-06T01:31:59;21.10;76.40
12977;DHT22;6553;48.412;9.514;2023-08-06T01:34:30;21.10;76.30
12977;DHT22;6553;48.412;9.514;2023-08-06T01:36:59;21.10;76.30
12977;DHT22;6553;48.412;9.514;2023-08-06T01:39:26;21.10;76.30
12977;DHT22;6553;48.412;9.514;2023-08-06T01:41:52;21.10;76.30
12977;DHT22;6553;48.412;9.514;2023-08-06T01:44:18;21.10;76.30
12977;DHT22;6553;48.412;9.514;2023-08-06T01:46:44;21.10;76.30
12977;DHT22;6553;48.412;9.514;2023-08-06T01:49:10;21.10;76.40
12977;DHT22;6553;48.412;9.514;2023-08-06T01:51:36;21.10;76.30
12977;DHT22;6553;48.412;9.514;2023-08-06T01:54:01;21.10;76.30
12977;DHT22;6553;48.412;9.514;2023-08-06T01:56:27;21.10;76.30
12977;DHT22;6553;48.412;9.514;2023-08-06T01:58:53;21.10;76.30
12977;DHT22;6553;48.412;9.514;2023-08-06T02:01:18;21.10;76.30
12977;DHT22;6553;48.412;9.514;2023-08-06T02:03:44;21.10;76.30
12977;DHT22;6553;48.412;9.514;2023-08-06T02:06:10;21.10;76.20
12977;DHT22;6553;48.412;9.514;2023-08-06T02:08:35;21.10;76.20
12977;DHT22;6553;48.412;9.514;2023-08-06T02:11:01;21.10;76.20
12977;DHT22;6553;48.412;9.514;2023-08-06T02:13:30;21.10;76.10
12977;DHT22;6553;48.412;9.514;2023-08-06T02:15:55;21.10;76.10
12977;DHT22;6553;48.412;9.514;2023-08-06T02:18:21;21.10;76.10
12977;DHT22;6553;48.412;9.514;2023-08-06T02:20:59;21.10;76.10
12977;DHT22;6553;48.412;9.514;2023-08-06T02:23:26;21.10;76.10
12977;DHT22;6553;48.412;9.514;2023-08-06T02:26:02;21.10;76.10
12977;DHT22;6553;48.412;9.514;2023-08-06T02:28:29;21.10;76.10
12977;DHT22;6553;48.412;9.514;2023-08-06T02:30:56;21.10;76.10
12977;DHT22;6553;48.412;9.514;2023-08-06T02:33:22;21.00;76.00
12977;DHT22;6553;48.412;9.514;2023-08-06T02:35:48;21.10;76.10
12977;DHT22;6553;48.412;9.514;2023-08-06T02:38:14;21.00;76.10
12977;DHT22;6553;48.412;9.514;2023-08-06T02:40:47;21.10;76.10
12977;DHT22;6553;48.412;9.514;2023-08-06T02:43:13;21.00;76.00
12977;DHT22;6553;48.412;9.514;2023-08-06T02:45:39;21.10;76.10
12977;DHT22;6553;48.412;9.514;2023-08-06T02:48:06;21.10;76.10
12977;DHT22;6553;48.412;9.514;2023-08-06T02:50:38;21.00;75.90
12977;DHT22;6553;48.412;9.514;2023-08-06T02:53:05;21.00;75.90
12977;DHT22;6553;48.412;9.514;2023-08-06T02:55:32;21.00;75.90
12977;DHT22;6553;48.412;9.514;2023-08-06T02:58:00;21.00;75.90
12977;DHT22;6553;48.412;9.514;2023-08-06T03:00:30;21.00;75.80
12977;DHT22;6553;48.412;9.514;2023-08-06T03:02:56;21.00;75.80
12977;DHT22;6553;48.412;9.514;2023-08-06T03:05:30;21.00;75.80
12977;DHT22;6553;48.412;9.514;2023-08-06T03:07:56;21.00;75.80
12977;DHT22;6553;48.412;9.514;2023-08-06T03:10:25;21.00;75.80
12977;DHT22;6553;48.412;9.514;2023-08-06T03:12:53;21.00;75.90
12977;DHT22;6553;48.412;9.514;2023-08-06T03:15:20;21.00;75.90
12977;DHT22;6553;48.412;9.514;2023-08-06T03:17:47;21.00;76.60
12977;DHT22;6553;48.412;9.514;2023-08-06T03:20:13;21.00;75.90
12977;DHT22;6553;48.412;9.514;2023-08-06T03:22:39;21.00;75.90
12977;DHT22;6553;48.412;9.514;2023-08-06T03:25:06;21.00;75.90
12977;DHT22;6553;48.412;9.514;2023-08-06T03:27:33;21.00;75.80
12977;DHT22;6553;48.412;9.514;2023-08-06T03:29:59;21.00;75.90
12977;DHT22;6553;48.412;9.514;2023-08-06T03:32:26;21.00;75.80
12977;DHT22;6553;48.412;9.514;2023-08-06T03:34:54;21.00;75.70
12977;DHT22;6553;48.412;9.514;2023-08-06T03:37:21;21.00;75.80
12977;DHT22;6553;48.412;9.514;2023-08-06T03:39:47;21.00;75.70
12977;DHT22;6553;48.412;9.514;2023-08-06T03:42:13;21.00;75.70
12977;DHT22;6553;48.412;9.514;2023-08-06T03:44:39;21.00;75.70
12977;DHT22;6553;48.412;9.514;2023-08-06T03:47:07;21.00;75.70
12977;DHT22;6553;48.412;9.514;2023-08-06T03:49:33;21.00;75.70
12977;DHT22;6553;48.412;9.514;2023-08-06T03:51:59;21.00;75.70
12977;DHT22;6553;48.412;9.514;2023-08-06T03:54:25;21.00;75.70
12977;DHT22;6553;48.412;9.514;2023-08-06T03:56:50;21.00;75.70
12977;DHT22;6553;48.412;9.514;2023-08-06T03:59:16;21.00;76.20
12977;DHT22;6553;48.412;9.514;2023-08-06T04:01:42;21.00;75.70
12977;DHT22;6553;48.412;9.514;2023-08-06T04:04:08;21.00;75.70
12977;DHT22;6553;48.412;9.514;2023-08-06T04:06:33;21.00;75.70
12977;DHT22;6553;48.412;9.514;2023-08-06T04:08:59;21.00;75.70
12977;DHT22;6553;48.412;9.514;2023-08-06T04:11:25;21.00;75.70
12977;DHT22;6553;48.412;9.514;2023-08-06T04:13:51;21.00;75.70
12977;DHT22;6553;48.412;9.514;2023-08-06T04:16:16;21.00;75.70
12977;DHT22;6553;48.412;9.514;2023-08-06T04:18:42;21.00;75.70
12977;DHT22;6553;48.412;9.514;2023-08-06T04:21:08;21.00;75.80
12977;DHT22;6553;48.412;9.514;2023-08-06T04:23:33;21.00;75.70
12977;DHT22;6553;48.412;9.514;2023-08-06T04:26:03;21.00;75.70
12977;DHT22;6553;48.412;9.514;2023-08-06T04:28:32;21.00;75.70
12977;DHT22;6553;48.412;9.514;2023-08-06T04:30:59;20.90;75.60
12977;DHT22;6553;48.412;9.514;2023-08-06T04:33:25;21.00;75.70
12977;DHT22;6553;48.412;9.514;2023-08-06T04:35:55;21.00;75.70
12977;DHT22;6553;48.412;9.514;2023-08-06T04:38:26;20.90;75.60
12977;DHT22;6553;48.412;9.514;2023-08-06T04:40:52;21.00;75.70
12977;DHT22;6553;48.412;9.514;2023-08-06T04:43:19;20.90;75.60
12977;DHT22;6553;48.412;9.514;2023-08-06T04:45:46;21.00;75.70
12977;DHT22;6553;48.412;9.514;2023-08-06T04:48:16;21.00;75.70
12977;DHT22;6553;48.412;9.514;2023-08-06T04:50:46;20.90;75.70
12977;DHT22;6553;48.412;9.514;2023-08-06T04:53:13;20.90;75.60
12977;DHT22;6553;48.412;9.514;2023-08-06T04:55:39;20.90;75.60
12977;DHT22;6553;48.412;9.514;2023-08-06T04:58:05;21.00;75.70
12977;DHT22;6553;48.412;9.514;2023-08-06T05:00:32;20.90;75.70
12977;DHT22;6553;48.412;9.514;2023-08-06T05:03:02;21.00;75.80
12977;DHT22;6553;48.412;9.514;2023-08-06T05:05:28;20.90;75.70
12977;DHT22;6553;48.412;9.514;2023-08-06T05:07:55;20.90;75.70
12977;DHT22;6553;48.412;9.514;2023-08-06T05:10:24;20.90;75.70
12977;DHT22;6553;48.412;9.514;2023-08-06T05:12:51;20.90;75.70
12977;DHT22;6553;48.412;9.514;2023-08-06T05:15:17;20.90;75.70
12977;DHT22;6553;48.412;9.514;2023-08-06T05:17:43;20.90;75.70
12977;DHT22;6553;48.412;9.514;2023-08-06T05:20:09;20.90;75.70
12977;DHT22;6553;48.412;9.514;2023-08-06T05:22:35;20.90;75.60
12977;DHT22;6553;48.412;9.514;2023-08-06T05:25:01;20.90;75.70
12977;DHT22;6553;48.412;9.514;2023-08-06T05:27:27;21.00;75.70
12977;DHT22;6553;48.412;9.514;2023-08-06T05:29:55;20.90;75.60
12977;DHT22;6553;48.412;9.514;2023-08-06T05:32:22;20.90;75.70
12977;DHT22;6553;48.412;9.514;2023-08-06T05:34:48;21.00;75.70
12977;DHT22;6553;48.412;9.514;2023-08-06T05:37:13;21.00;75.70
12977;DHT22;6553;48.412;9.514;2023-08-06T05:39:39;20.90;75.70
12977;DHT22;6553;48.412;9.514;2023-08-06T05:42:05;20.90;75.70
12977;DHT22;6553;48.412;9.514;2023-08-06T05:44:31;20.90;75.70
12977;DHT22;6553;48.412;9.514;2023-08-06T05:46:56;20.90;75.70
12977;DHT22;6553;48.412;9.514;2023-08-06T05:49:22;20.90;75.70
12977;DHT22;6553;48.412;9.514;2023-08-06T05:51:48;20.90;75.70
12977;DHT22;6553;48.412;9.514;2023-08-06T05:54:14;20.90;75.70
12977;DHT22;6553;48.412;9.514;2023-08-06T05:56:39;20.90;75.70
12977;DHT22;6553;48.412;9.514;2023-08-06T05:59:05;20.90;75.70
12977;DHT22;6553;48.412;9.514;2023-08-06T06:01:31;20.90;75.70
12977;DHT22;6553;48.412;9.514;2023-08-06T06:03:57;20.90;75.70
12977;DHT22;6553;48.412;9.514;2023-08-06T06:06:22;20.90;75.70
12977;DHT22;6553;48.412;9.514;2023-08-06T06:08:48;20.90;75.70
12977;DHT22;6553;48.412;9.514;2023-08-06T06:11:14;20.90;75.70
12977;DHT22;6553;48.412;9.514;2023-08-06T06:13:39;20.90;75.70
12977;DHT22;6553;48.412;9.514;2023-08-06T06:16:05;20.90;75.60
12977;DHT22;6553;48.412;9.514;2023-08-06T06:18:31;20.90;75.70
12977;DHT22;6553;48.412;9.514;2023-08-06T06:20:57;20.90;75.70
12977;DHT22;6553;48.412;9.514;2023-08-06T06:23:22;20.90;75.70
12977;DHT22;6553;48.412;9.514;2023-08-06T06:25:49;20.90;75.70
12977;DHT22;6553;48.412;9.514;2023-08-06T06:28:19;20.90;75.60
12977;DHT22;6553;48.412;9.514;2023-08-06T06:30:45;20.90;75.70
12977;DHT22;6553;48.412;9.514;2023-08-06T06:33:10;20.90;75.70
12977;DHT22;6553;48.412;9.514;2023-08-06T06:35:37;20.90;75.60
12977;DHT22;6553;48.412;9.514;2023-08-06T06:38:03;20.90;75.70
12977;DHT22;6553;48.412;9.514;2023-08-06T06:40:28;20.90;75.70
12977;DHT22;6553;48.412;9.514;2023-08-06T06:42:54;20.90;75.70
12977;DHT22;6553;48.412;9.514;2023-08-06T06:45:20;20.90;75.70
12977;DHT22;6553;48.412;9.514;2023-08-06T06:47:46;20.90;75.80
12977;DHT22;6553;48.412;9.514;2023-08-06T06:50:11;20.90;75.70
12977;DHT22;6553;48.412;9.514;2023-08-06T06:52:37;20.90;75.70
12977;DHT22;6553;48.412;9.514;2023-08-06T06:55:03;20.90;75.70
12977;DHT22;6553;48.412;9.514;2023-08-06T06:57:29;20.90;75.70
12977;DHT22;6553;48.412;9.514;2023-08-06T06:59:55;20.90;75.70
12977;DHT22;6553;48.412;9.514;2023-08-06T07:02:21;20.90;75.70
12977;DHT22;6553;48.412;9.514;2023-08-06T07:04:47;20.90;75.70
12977;DHT22;6553;48.412;9.514;2023-08-06T07:07:13;20.90;75.70
12977;DHT22;6553;48.412;9.514;2023-08-06T07:09:38;20.90;75.70
12977;DHT22;6553;48.412;9.514;2023-08-06T07:12:04;20.90;75.70
12977;DHT22;6553;48.412;9.514;2023-08-06T07:14:30;20.90;75.70
12977;DHT22;6553;48.412;9.514;2023-08-06T07:16:56;20.90;75.70
12977;DHT22;6553;48.412;9.514;2023-08-06T07:19:22;20.90;75.70
12977;DHT22;6553;48.412;9.514;2023-08-06T07:21:48;20.90;75.70
12977;DHT22;6553;48.412;9.514;2023-08-06T07:24:14;20.90;75.70
12977;DHT22;6553;48.412;9.514;2023-08-06T07:26:40;20.90;75.70
12977;DHT22;6553;48.412;9.514;2023-08-06T07:29:05;20.90;75.70
12977;DHT22;6553;48.412;9.514;2023-08-06T07:31:31;20.90;75.70
12977;DHT22;6553;48.412;9.514;2023-08-06T07:33:57;20.90;75.70
12977;DHT22;6553;48.412;9.514;2023-08-06T07:36:23;20.90;75.70
12977;DHT22;6553;48.412;9.514;2023-08-06T07:38:48;20.90;75.80
12977;DHT22;6553;48.412;9.514;2023-08-06T07:41:17;20.90;75.80
12977;DHT22;6553;48.412;9.514;2023-08-06T07:43:43;20.90;75.70
12977;DHT22;6553;48.412;9.514;2023-08-06T07:46:08;20.90;75.80
12977;DHT22;6553;48.412;9.514;2023-08-06T07:48:34;20.90;75.80
12977;DHT22;6553;48.412;9.514;2023-08-06T07:51:00;20.90;75.80
12977;DHT22;6553;48.412;9.514;2023-08-06T07:53:26;20.80;75.80
12977;DHT22;6553;48.412;9.514;2023-08-06T07:55:57;20.90;75.80
12977;DHT22;6553;48.412;9.514;2023-08-06T07:58:24;20.90;75.90
12977;DHT22;6553;48.412;9.514;2023-08-06T08:00:50;20.90;75.90
12977;DHT22;6553;48.412;9.514;2023-08-06T08:03:16;20.90;75.80
12977;DHT22;6553;48.412;9.514;2023-08-06T08:05:43;20.90;75.80
12977;DHT22;6553;48.412;9.514;2023-08-06T08:08:10;20.90;75.80
12977;DHT22;6553;48.412;9.514;2023-08-06T08:10:36;20.90;75.70
12977;DHT22;6553;48.412;9.514;2023-08-06T08:13:03;20.90;75.70
12977;DHT22;6553;48.412;9.514;2023-08-06T08:15:30;20.90;75.80
12977;DHT22;6553;48.412;9.514;2023-08-06T08:17:57;20.90;75.70
12977;DHT22;6553;48.412;9.514;2023-08-06T08:20:24;20.90;75.70
12977;DHT22;6553;48.412;9.514;2023-08-06T08:22:50;20.90;75.70
12977;DHT22;6553;48.412;9.514;2023-08-06T08:25:16;20.90;75.70
12977;DHT22;6553;48.412;9.514;2023-08-06T08:27:42;20.90;75.60
12977;DHT22;6553;48.412;9.514;2023-08-06T08:30:08;20.90;75.60
12977;DHT22;6553;48.412;9.514;2023-08-06T08:32:34;20.90;75.60
12977;DHT22;6553;48.412;9.514;2023-08-06T08:34:59;21.00;75.70
12977;DHT22;6553;48.412;9.514;2023-08-06T08:37:25;20.90;75.60
12977;DHT22;6553;48.412;9.514;2023-08-06T08:39:51;20.90;75.60
12977;DHT22;6553;48.412;9.514;2023-08-06T08:42:17;20.90;75.60
12977;DHT22;6553;48.412;9.514;2023-08-06T08:44:44;21.00;75.70
12977;DHT22;6553;48.412;9.514;2023-08-06T08:47:11;20.90;75.60
12977;DHT22;6553;48.412;9.514;2023-08-06T08:49:38;21.00;75.70
12977;DHT22;6553;48.412;9.514;2023-08-06T08:52:07;21.00;75.70
12977;DHT22;6553;48.412;9.514;2023-08-06T08:54:38;21.00;75.70
12977;DHT22;6553;48.412;9.514;2023-08-06T08:57:04;21.00;75.70
12977;DHT22;6553;48.412;9.514;2023-08-06T08:59:32;21.00;75.70
12977;DHT22;6553;48.412;9.514;2023-08-06T09:02:00;21.00;75.70
12977;DHT22;6553;48.412;9.514;2023-08-06T09:04:28;20.90;75.60
12977;DHT22;6553;48.412;9.514;2023-08-06T09:06:58;21.00;75.70
12977;DHT22;6553;48.412;9.514;2023-08-06T09:09:34;21.00;75.70
12977;DHT22;6553;48.412;9.514;2023-08-06T09:12:13;21.00;75.70
12977;DHT22;6553;48.412;9.514;2023-08-06T09:14:40;21.00;75.70
12977;DHT22;6553;48.412;9.514;2023-08-06T09:17:07;21.00;75.70
12977;DHT22;6553;48.412;9.514;2023-08-06T09:19:33;21.00;75.70
12977;DHT22;6553;48.412;9.514;2023-08-06T09:21:59;21.00;75.70
12977;DHT22;6553;48.412;9.514;2023-08-06T09:24:24;21.00;75.70
12977;DHT22;6553;48.412;9.514;2023-08-06T09:26:52;21.00;75.70
12977;DHT22;6553;48.412;9.514;2023-08-06T09:29:17;21.00;75.70
12977;DHT22;6553;48.412;9.514;2023-08-06T09:31:45;21.00;75.70
12977;DHT22;6553;48.412;9.514;2023-08-06T09:34:23;21.00;75.70
12977;DHT22;6553;48.412;9.514;2023-08-06T09:36:53;21.00;75.70
12977;DHT22;6553;48.412;9.514;2023-08-06T09:39:27;21.00;75.70
12977;DHT22;6553;48.412;9.514;2023-08-06T09:41:58;21.00;75.70
12977;DHT22;6553;48.412;9.514;2023-08-06T09:44:27;21.00;75.70
12977;DHT22;6553;48.412;9.514;2023-08-06T09:46:58;21.00;75.70
12977;DHT22;6553;48.412;9.514;2023-08-06T09:49:27;21.00;75.70
12977;DHT22;6553;48.412;9.514;2023-08-06T09:51:55;21.00;75.70
12977;DHT22;6553;48.412;9.514;2023-08-06T09:54:25;21.00;75.70
12977;DHT22;6553;48.412;9.514;2023-08-06T09:56:53;21.00;75.70
12977;DHT22;6553;48.412;9.514;2023-08-06T09:59:19;21.00;75.70
12977;DHT22;6553;48.412;9.514;2023-08-06T10:01:45;21.00;75.70
12977;DHT22;6553;48.412;9.514;2023-08-06T10:04:14;21.00;75.60
12977;DHT22;6553;48.412;9.514;2023-08-06T10:06:43;21.00;75.70
12977;DHT22;6553;48.412;9.514;2023-08-06T10:09:12;21.00;75.60
12977;DHT22;6553;48.412;9.514;2023-08-06T10:11:39;21.00;75.70
12977;DHT22;6553;48.412;9.514;2023-08-06T10:14:18;21.00;75.70
12977;DHT22;6553;48.412;9.514;2023-08-06T10:16:49;21.10;76.50
12977;DHT22;6553;48.412;9.514;2023-08-06T10:19:16;21.00;75.70
12977;DHT22;6553;48.412;9.514;2023-08-06T10:22:09;21.00;75.70
12977;DHT22;6553;48.412;9.514;2023-08-06T10:24:56;21.00;75.70
12977;DHT22;6553;48.412;9.514;2023-08-06T10:27:40;21.00;75.70
12977;DHT22;6553;48.412;9.514;2023-08-06T10:30:31;21.00;75.80
12977;DHT22;6553;48.412;9.514;2023-08-06T10:33:02;21.00;75.70
12977;DHT22;6553;48.412;9.514;2023-08-06T10:35:46;21.00;75.70
12977;DHT22;6553;48.412;9.514;2023-08-06T10:38:20;21.00;75.70
12977;DHT22;6553;48.412;9.514;2023-08-06T10:43:29;21.00;75.70
12977;DHT22;6553;48.412;9.514;2023-08-06T10:45:59;21.00;75.70
12977;DHT22;6553;48.412;9.514;2023-08-06T10:48:37;21.00;75.70
12977;DHT22;6553;48.412;9.514;2023-08-06T10:51:10;21.00;75.80
12977;DHT22;6553;48.412;9.514;2023-08-06T10:53:42;21.00;76.60
12977;DHT22;6553;48.412;9.514;2023-08-06T10:56:13;21.00;75.80
12977;DHT22;6553;48.412;9.514;2023-08-06T10:58:40;21.00;75.80
12977;DHT22;6553;48.412;9.514;2023-08-06T11:01:06;21.00;75.70
12977;DHT22;6553;48.412;9.514;2023-08-06T11:03:33;21.00;75.80
12977;DHT22;6553;48.412;9.514;2023-08-06T11:05:59;21.00;75.80
12977;DHT22;6553;48.412;9.514;2023-08-06T11:08:26;21.00;75.70
12977;DHT22;6553;48.412;9.514;2023-08-06T11:10:53;21.00;75.70
12977;DHT22;6553;48.412;9.514;2023-08-06T11:13:21;21.00;75.70
12977;DHT22;6553;48.412;9.514;2023-08-06T11:15:47;21.00;75.80
12977;DHT22;6553;48.412;9.514;2023-08-06T11:18:13;21.00;75.70
12977;DHT22;6553;48.412;9.514;2023-08-06T11:20:39;21.00;75.70
12977;DHT22;6553;48.412;9.514;2023-08-06T11:23:05;21.00;75.70
12977;DHT22;6553;48.412;9.514;2023-08-06T11:25:36;21.00;75.70
12977;DHT22;6553;48.412;9.514;2023-08-06T11:28:02;21.00;75.70
12977;DHT22;6553;48.412;9.514;2023-08-06T11:30:28;21.00;75.80
12977;DHT22;6553;48.412;9.514;2023-08-06T11:32:53;21.00;75.80
12977;DHT22;6553;48.412;9.514;2023-08-06T11:35:19;21.00;75.80
12977;DHT22;6553;48.412;9.514;2023-08-06T11:37:45;21.00;75.80
12977;DHT22;6553;48.412;9.514;2023-08-06T11:40:12;21.00;75.80
12977;DHT22;6553;48.412;9.514;2023-08-06T11:42:40;21.00;75.80
12977;DHT22;6553;48.412;9.514;2023-08-06T11:45:08;21.00;75.80
12977;DHT22;6553;48.412;9.514;2023-08-06T11:47:40;21.00;75.80
12977;DHT22;6553;48.412;9.514;2023-08-06T11:50:06;21.00;75.80
12977;DHT22;6553;48.412;9.514;2023-08-06T11:52:32;21.00;75.80
12977;DHT22;6553;48.412;9.514;2023-08-06T11:55:03;21.00;75.80
12977;DHT22;6553;48.412;9.514;2023-08-06T11:57:43;21.00;75.80
12977;DHT22;6553;48.412;9.514;2023-08-06T12:00:13;21.00;75.80
12977;DHT22;6553;48.412;9.514;2023-08-06T12:02:44;21.00;75.80
12977;DHT22;6553;48.412;9.514;2023-08-06T12:05:13;21.00;75.80
12977;DHT22;6553;48.412;9.514;2023-08-06T12:07:48;21.00;75.80
12977;DHT22;6553;48.412;9.514;2023-08-06T12:10:15;21.00;75.80
12977;DHT22;6553;48.412;9.514;2023-08-06T12:12:42;21.00;75.80
12977;DHT22;6553;48.412;9.514;2023-08-06T12:15:09;21.00;75.70
12977;DHT22;6553;48.412;9.514;2023-08-06T12:17:36;21.10;75.90
12977;DHT22;6553;48.412;9.514;2023-08-06T12:20:03;21.10;75.80
12977;DHT22;6553;48.412;9.514;2023-08-06T12:22:31;21.10;75.80
12977;DHT22;6553;48.412;9.514;2023-08-06T12:25:01;21.10;75.70
12977;DHT22;6553;48.412;9.514;2023-08-06T12:27:42;21.10;76.40
12977;DHT22;6553;48.412;9.514;2023-08-06T12:30:09;21.10;75.70
12977;DHT22;6553;48.412;9.514;2023-08-06T12:32:36;21.10;75.60
12977;DHT22;6553;48.412;9.514;2023-08-06T12:35:02;21.10;75.70
12977;DHT22;6553;48.412;9.514;2023-08-06T12:37:29;21.10;75.70
12977;DHT22;6553;48.412;9.514;2023-08-06T12:39:54;21.10;75.70
12977;DHT22;6553;48.412;9.514;2023-08-06T12:42:20;21.10;75.60
12977;DHT22;6553;48.412;9.514;2023-08-06T12:44:48;21.10;75.70
12977;DHT22;6553;48.412;9.514;2023-08-06T12:47:15;21.10;75.70
12977;DHT22;6553;48.412;9.514;2023-08-06T12:49:41;21.10;75.70
12977;DHT22;6553;48.412;9.514;2023-08-06T12:52:07;21.10;75.80
12977;DHT22;6553;48.412;9.514;2023-08-06T12:54:35;21.10;75.80
12977;DHT22;6553;48.412;9.514;2023-08-06T12:57:04;21.10;75.70
12977;DHT22;6553;48.412;9.514;2023-08-06T12:59:30;21.10;75.60
12977;DHT22;6553;48.412;9.514;2023-08-06T13:01:56;21.10;75.70
12977;DHT22;6553;48.412;9.514;2023-08-06T13:04:22;21.10;75.70
12977;DHT22;6553;48.412;9.514;2023-08-06T13:06:48;21.10;75.70
12977;DHT22;6553;48.412;9.514;2023-08-06T13:09:14;21.10;75.60
12977;DHT22;6553;48.412;9.514;2023-08-06T13:11:41;21.10;75.50
12977;DHT22;6553;48.412;9.514;2023-08-06T13:14:11;21.10;75.60
12977;DHT22;6553;48.412;9.514;2023-08-06T13:16:40;21.10;75.60
12977;DHT22;6553;48.412;9.514;2023-08-06T13:19:07;21.10;75.60
12977;DHT22;6553;48.412;9.514;2023-08-06T13:21:34;21.10;75.60
12977;DHT22;6553;48.412;9.514;2023-08-06T13:24:20;21.10;75.50
12977;DHT22;6553;48.412;9.514;2023-08-06T13:26:46;21.10;75.70
12977;DHT22;6553;48.412;9.514;2023-08-06T13:29:12;21.10;75.60
12977;DHT22;6553;48.412;9.514;2023-08-06T13:31:38;21.10;75.60
12977;DHT22;6553;48.412;9.514;2023-08-06T13:34:04;21.10;75.50
12977;DHT22;6553;48.412;9.514;2023-08-06T13:36:30;21.10;75.50
12977;DHT22;6553;48.412;9.514;2023-08-06T13:38:56;21.10;75.60
12977;DHT22;6553;48.412;9.514;2023-08-06T13:41:22;21.10;75.40
12977;DHT22;6553;48.412;9.514;2023-08-06T13:43:49;21.10;75.40
12977;DHT22;6553;48.412;9.514;2023-08-06T13:46:18;21.10;75.50
12977;DHT22;6553;48.412;9.514;2023-08-06T13:48:46;21.10;75.50
12977;DHT22;6553;48.412;9.514;2023-08-06T13:51:13;21.10;75.60
12977;DHT22;6553;48.412;9.514;2023-08-06T13:53:39;21.10;75.60
12977;DHT22;6553;48.412;9.514;2023-08-06T13:56:06;21.10;75.50
12977;DHT22;6553;48.412;9.514;2023-08-06T13:58:35;21.10;76.20
12977;DHT22;6553;48.412;9.514;2023-08-06T14:01:01;21.10;75.50
12977;DHT22;6553;48.412;9.514;2023-08-06T14:03:27;21.10;75.60
12977;DHT22;6553;48.412;9.514;2023-08-06T14:05:53;21.10;75.60
12977;DHT22;6553;48.412;9.514;2023-08-06T14:08:20;21.10;75.60
12977;DHT22;6553;48.412;9.514;2023-08-06T14:10:47;21.10;75.60
12977;DHT22;6553;48.412;9.514;2023-08-06T14:13:13;21.10;75.60
12977;DHT22;6553;48.412;9.514;2023-08-06T14:15:39;21.10;75.60
12977;DHT22;6553;48.412;9.514;2023-08-06T14:18:06;21.10;76.40
12977;DHT22;6553;48.412;9.514;2023-08-06T14:20:34;21.10;75.70
12977;DHT22;6553;48.412;9.514;2023-08-06T14:23:00;21.10;75.70
12977;DHT22;6553;48.412;9.514;2023-08-06T14:25:25;21.10;75.60
12977;DHT22;6553;48.412;9.514;2023-08-06T14:27:51;21.10;75.60
12977;DHT22;6553;48.412;9.514;2023-08-06T14:30:17;21.10;75.60
12977;DHT22;6553;48.412;9.514;2023-08-06T14:32:42;21.10;75.50
12977;DHT22;6553;48.412;9.514;2023-08-06T14:35:08;21.10;75.50
12977;DHT22;6553;48.412;9.514;2023-08-06T14:37:34;21.10;75.50
12977;DHT22;6553;48.412;9.514;2023-08-06T14:40:00;21.10;75.40
12977;DHT22;6553;48.412;9.514;2023-08-06T14:42:26;21.10;75.50
12977;DHT22;6553;48.412;9.514;2023-08-06T14:44:52;21.10;75.40
12977;DHT22;6553;48.412;9.514;2023-08-06T14:47:17;21.10;75.40
12977;DHT22;6553;48.412;9.514;2023-08-06T14:49:43;21.10;75.50
12977;DHT22;6553;48.412;9.514;2023-08-06T14:52:10;21.10;75.50
12977;DHT22;6553;48.412;9.514;2023-08-06T14:54:36;21.10;75.60
12977;DHT22;6553;48.412;9.514;2023-08-06T14:57:01;21.10;75.60
12977;DHT22;6553;48.412;9.514;2023-08-06T14:59:27;21.10;75.60
12977;DHT22;6553;48.412;9.514;2023-08-06T15:01:53;21.10;75.60
12977;DHT22;6553;48.412;9.514;2023-08-06T15:04:19;21.10;75.60
12977;DHT22;6553;48.412;9.514;2023-08-06T15:06:45;21.10;75.60
12977;DHT22;6553;48.412;9.514;2023-08-06T15:09:11;21.10;75.60
12977;DHT22;6553;48.412;9.514;2023-08-06T15:11:37;21.10;75.60
12977;DHT22;6553;48.412;9.514;2023-08-06T15:14:03;21.10;75.60
12977;DHT22;6553;48.412;9.514;2023-08-06T15:16:30;21.10;75.70
12977;DHT22;6553;48.412;9.514;2023-08-06T15:18:56;21.00;75.50
12977;DHT22;6553;48.412;9.514;2023-08-06T15:21:22;21.00;75.50
12977;DHT22;6553;48.412;9.514;2023-08-06T15:23:47;21.00;75.50
12977;DHT22;6553;48.412;9.514;2023-08-06T15:26:13;21.10;75.70
12977;DHT22;6553;48.412;9.514;2023-08-06T15:28:39;21.00;75.60
12977;DHT22;6553;48.412;9.514;2023-08-06T15:31:05;21.00;75.60
12977;DHT22;6553;48.412;9.514;2023-08-06T15:33:33;21.00;75.50
12977;DHT22;6553;48.412;9.514;2023-08-06T15:35:59;21.10;75.60
12977;DHT22;6553;48.412;9.514;2023-08-06T15:38:25;21.10;75.60
12977;DHT22;6553;48.412;9.514;2023-08-06T15:40:51;21.10;75.60
12977;DHT22;6553;48.412;9.514;2023-08-06T15:43:17;21.10;75.60
12977;DHT22;6553;48.412;9.514;2023-08-06T15:45:42;21.00;75.50
12977;DHT22;6553;48.412;9.514;2023-08-06T15:48:08;21.10;75.50